createdAt,value
2022-10-31T00:01:11.098Z,1026.1
2022-10-31T00:06:58.851Z,1026.1
2022-10-31T00:12:07.483Z,1026.2
2022-10-31T00:18:02.990Z,1026.1
2022-10-31T00:23:30.996Z,1026.1
2022-10-31T00:28:56.506Z,1026.1
2022-10-31T00:34:26.485Z,1026.2
2022-10-31T00:39:56.515Z,1026.2
2022-10-31T00:45:26.764Z,1026.1
2022-10-31T00:51:21.693Z,1026.1
2022-10-31T00:56:41.494Z,1026.2
2022-10-31T01:02:16.004Z,1026.2
2022-10-31T01:07:35.442Z,1026.2
2022-10-31T01:13:23.937Z,1026.1
2022-10-31T01:19:04.741Z,1026
2022-10-31T01:24:29.767Z,1026
2022-10-31T01:29:47.346Z,1025.9
2022-10-31T01:35:23.246Z,1025.9
2022-10-31T01:40:53.209Z,1026
2022-10-31T01:46:48.254Z,1026
2022-10-31T01:52:08.559Z,1025.8
2022-10-31T01:57:54.996Z,1025.8
2022-10-31T02:03:06.433Z,1025.8
2022-10-31T02:08:39.390Z,1025.7
2022-10-31T02:14:35.937Z,1025.8
2022-10-31T02:19:53.480Z,1025.8
2022-10-31T02:25:28.192Z,1025.7
2022-10-31T02:31:04.208Z,1025.7
2022-10-31T02:36:46.252Z,1025.7
2022-10-31T02:42:16.825Z,1025.7
2022-10-31T02:47:44.461Z,1025.7
2022-10-31T02:53:21.070Z,1025.6
2022-10-31T02:58:49.385Z,1025.6
2022-10-31T03:04:12.251Z,1025.5
2022-10-31T03:09:58.554Z,1025.5
2022-10-31T03:15:36.772Z,1025.4
2022-10-31T03:21:12.145Z,1025.4
2022-10-31T03:26:31.757Z,1025.3
2022-10-31T03:32:11.703Z,1025.3
2022-10-31T03:37:45.035Z,1025.3
2022-10-31T03:42:56.328Z,1025.3
2022-10-31T03:48:52.947Z,1025.4
2022-10-31T03:54:03.225Z,1025.3
2022-10-31T03:59:50.113Z,1025.4
2022-10-31T04:05:18.685Z,1025.3
2022-10-31T04:11:02.697Z,1025.3
2022-10-31T04:16:17.100Z,1025.4
2022-10-31T04:22:06.740Z,1025.4
2022-10-31T04:27:23.052Z,1025.4
2022-10-31T04:33:02.943Z,1025.4
2022-10-31T04:38:47.295Z,1025.3
2022-10-31T04:44:20.917Z,1025.2
2022-10-31T04:49:45.408Z,1025.1
2022-10-31T04:55:26.078Z,1025.2
2022-10-31T05:00:54.719Z,1025.2
2022-10-31T05:06:15.431Z,1025.1
2022-10-31T05:11:55.017Z,1025.1
2022-10-31T05:17:19.382Z,1025
2022-10-31T05:22:54.296Z,1025
2022-10-31T05:28:21.762Z,1025
2022-10-31T05:34:01.138Z,1025
2022-10-31T05:39:35.286Z,1025
2022-10-31T05:45:14.570Z,1024.9
2022-10-31T05:50:56.874Z,1024.9
2022-10-31T05:56:03.495Z,1024.8
2022-10-31T06:01:58.336Z,1024.8
2022-10-31T06:07:22.847Z,1024.9
2022-10-31T06:12:43.134Z,1024.9
2022-10-31T06:18:13.691Z,1025
2022-10-31T06:24:12.641Z,1025.1
2022-10-31T06:29:34.070Z,1025
2022-10-31T06:34:54.806Z,1025
2022-10-31T06:40:33.662Z,1025
2022-10-31T06:46:21.738Z,1025.1
2022-10-31T06:51:35.562Z,1025
2022-10-31T06:57:28.826Z,1025
2022-10-31T07:02:50.401Z,1025.1
2022-10-31T07:08:36.732Z,1025.1
2022-10-31T07:13:58.001Z,1025.2
2022-10-31T07:19:38.090Z,1025.3
2022-10-31T07:24:52.637Z,1025.4
2022-10-31T07:30:30.591Z,1025.4
2022-10-31T07:35:56.432Z,1025.4
2022-10-31T07:41:44.016Z,1025.4
2022-10-31T07:47:21.198Z,1025.3
2022-10-31T07:52:51.624Z,1025.4
2022-10-31T07:58:23.022Z,1025.4
2022-10-31T08:03:48.837Z,1025.5
2022-10-31T08:09:34.508Z,1025.4
2022-10-31T08:15:05.212Z,1025.3
2022-10-31T08:20:30.713Z,1025.3
2022-10-31T08:26:01.873Z,1025.2
2022-10-31T08:31:35.772Z,1025.1
2022-10-31T08:37:01.273Z,1025
2022-10-31T08:42:45.752Z,1025
2022-10-31T08:48:02.476Z,1025
2022-10-31T08:53:35.682Z,1024.9
2022-10-31T08:59:10.555Z,1024.9
2022-10-31T09:04:45.474Z,1024.7
2022-10-31T09:10:35.909Z,1024.8
2022-10-31T09:15:58.721Z,1024.7
2022-10-31T09:21:48.213Z,1024.6
2022-10-31T09:27:09.669Z,1024.4
2022-10-31T09:32:52.686Z,1024.5
2022-10-31T09:38:18.235Z,1024.4
2022-10-31T09:44:01.575Z,1024.4
2022-10-31T09:49:22.886Z,1024.3
2022-10-31T09:54:49.376Z,1024.3
2022-10-31T10:00:27.016Z,1024.3
2022-10-31T10:05:54.686Z,1024.3
2022-10-31T10:11:47.866Z,1024.1
2022-10-31T10:17:13.268Z,1024.2
2022-10-31T10:22:41.347Z,1024.1
2022-10-31T10:28:18.299Z,1023.9
2022-10-31T10:33:56.998Z,1023.9
2022-10-31T10:39:33.193Z,1023.9
2022-10-31T10:45:02.159Z,1023.7
2022-10-31T10:50:35.592Z,1023.6
2022-10-31T10:56:18.810Z,1023.6
2022-10-31T11:01:40.334Z,1023.4
2022-10-31T11:07:00.239Z,1023.1
2022-10-31T11:12:56.561Z,1023.2
2022-10-31T11:18:13.653Z,1022.9
2022-10-31T11:23:56.620Z,1022.8
2022-10-31T11:29:35.360Z,1022.7
2022-10-31T11:34:56.813Z,1022.4
2022-10-31T11:40:27.737Z,1022.4
2022-10-31T11:45:54.309Z,1022.3
2022-10-31T11:51:53.555Z,1022.2
2022-10-31T11:57:24.427Z,1022
2022-10-31T12:03:03.235Z,1021.9
2022-10-31T12:08:14.206Z,1021.9
2022-10-31T12:13:44.475Z,1021.9
2022-10-31T12:19:24.882Z,1021.4
2022-10-31T12:25:04.005Z,1021.2
2022-10-31T12:30:44.499Z,1021.2
2022-10-31T12:36:15.705Z,1020.7
2022-10-31T12:41:41.032Z,1020.3
2022-10-31T12:47:23.892Z,1020.4
2022-10-31T12:52:54.397Z,1020.1
2022-10-31T12:58:42.310Z,1019.9
2022-10-31T13:03:57.683Z,1019.9
2022-10-31T13:09:39.995Z,1019.7
2022-10-31T13:15:29.888Z,1019.5
2022-10-31T13:21:02.521Z,1019.4
2022-10-31T13:26:16.043Z,1019
2022-10-31T13:32:09.411Z,1018.9
2022-10-31T13:37:54.612Z,1018.7
2022-10-31T13:43:31.067Z,1018.9
2022-10-31T13:48:49.874Z,1018.6
2022-10-31T13:54:39.146Z,1018.6
2022-10-31T13:59:51.397Z,1018.3
2022-10-31T14:05:47.777Z,1018.2
2022-10-31T14:11:02.185Z,1018.3
2022-10-31T14:16:39.937Z,1018.5
2022-10-31T14:22:16.643Z,1018.6
2022-10-31T14:27:57.102Z,1018.9
2022-10-31T14:33:36.885Z,1018.7
2022-10-31T14:38:58.844Z,1018.9
2022-10-31T14:44:52.916Z,1018.9
2022-10-31T14:50:25.822Z,1019.1
2022-10-31T14:55:58.689Z,1019.1
2022-10-31T15:01:37.254Z,1019.1
2022-10-31T15:06:54.706Z,1019.3
2022-10-31T15:12:20.462Z,1019.4
2022-10-31T15:17:54.965Z,1019.5
2022-10-31T15:23:52.393Z,1019.5
2022-10-31T15:29:14.755Z,1020
2022-10-31T15:34:56.613Z,1020
2022-10-31T15:40:10.777Z,1020
2022-10-31T15:45:53.612Z,1020
2022-10-31T15:51:40.155Z,1020.2
2022-10-31T15:56:59.940Z,1020.1
2022-10-31T16:02:42.929Z,1020.2
2022-10-31T16:08:06.571Z,1020.3
2022-10-31T16:13:55.334Z,1020.3
2022-10-31T16:19:26.975Z,1020.5
2022-10-31T16:24:38.825Z,1020.5
2022-10-31T16:30:12.476Z,1020.6
2022-10-31T16:36:04.700Z,1020.8
2022-10-31T16:41:42.824Z,1021.1
2022-10-31T16:47:08.913Z,1021.3
2022-10-31T16:53:00.876Z,1021.3
2022-10-31T16:58:22.642Z,1021.4
2022-10-31T17:03:55.036Z,1021.3
2022-10-31T17:09:16.961Z,1021.4
2022-10-31T17:14:41.976Z,1021.5
2022-10-31T17:20:10.654Z,1021.6
2022-10-31T17:25:49.270Z,1021.6
2022-10-31T17:31:40.669Z,1021.7
2022-10-31T17:36:59.199Z,1021.7
2022-10-31T17:42:28.234Z,1021.6
2022-10-31T17:48:16.817Z,1021.5
2022-10-31T17:53:36.386Z,1021.6
2022-10-31T17:59:01.891Z,1021.8
2022-10-31T18:04:53.764Z,1021.8
2022-10-31T18:10:20.846Z,1021.9
2022-10-31T18:15:45.557Z,1021.9
2022-10-31T18:21:25.995Z,1021.9
2022-10-31T18:26:53.145Z,1021.8
2022-10-31T18:32:23.856Z,1021.7
2022-10-31T18:38:00.668Z,1021.8
2022-10-31T18:43:38.115Z,1021.8
2022-10-31T18:49:25.841Z,1021.6
2022-10-31T18:54:37.838Z,1021.6
2022-10-31T19:00:30.173Z,1021.6
2022-10-31T19:05:46.138Z,1021.5
2022-10-31T19:11:19.474Z,1021.5
2022-10-31T19:16:54.513Z,1021.5
2022-10-31T19:22:33.652Z,1021.5
2022-10-31T19:27:52.183Z,1021.6
2022-10-31T19:33:40.788Z,1021.7
2022-10-31T19:39:17.408Z,1021.6
2022-10-31T19:44:58.062Z,1021.6
2022-10-31T19:50:05.345Z,1021.6
2022-10-31T19:55:41.047Z,1021.6
2022-10-31T20:01:20.100Z,1021.6
2022-10-31T20:06:57.244Z,1021.6
2022-10-31T20:12:36.353Z,1021.6
2022-10-31T20:18:04.655Z,1021.7
2022-10-31T20:23:42.018Z,1021.8
2022-10-31T20:29:19.165Z,1021.8
2022-10-31T20:34:30.938Z,1021.8
2022-10-31T20:40:10.396Z,1021.8
2022-10-31T20:45:51.523Z,1021.8
2022-10-31T20:51:17.542Z,1021.7
2022-10-31T20:57:00.353Z,1021.7
2022-10-31T21:02:37.190Z,1021.9
2022-10-31T21:08:06.886Z,1022
2022-10-31T21:13:39.361Z,1021.9
2022-10-31T21:19:04.524Z,1021.9
2022-10-31T21:24:41.736Z,1021.9
2022-10-31T21:30:12.605Z,1022
2022-10-31T21:35:46.600Z,1022
2022-10-31T21:41:11.619Z,1022
2022-10-31T21:46:39.809Z,1022
2022-10-31T21:52:26.858Z,1021.9
2022-10-31T21:57:53.497Z,1022
2022-10-31T22:03:31.259Z,1021.9
2022-10-31T22:09:09.790Z,1022
2022-10-31T22:14:24.962Z,1022.1
2022-10-31T22:20:02.507Z,1022.2
2022-10-31T22:25:28.296Z,1022
2022-10-31T22:31:06.639Z,1021.9
2022-10-31T22:36:50.130Z,1021.8
2022-10-31T22:42:18.987Z,1021.9
2022-10-31T22:47:58.368Z,1021.8
2022-10-31T22:53:29.594Z,1021.8
2022-10-31T22:59:07.613Z,1021.7
2022-10-31T23:04:27.806Z,1021.8
2022-10-31T23:10:01.974Z,1021.8
2022-10-31T23:15:31.573Z,1021.9
2022-10-31T23:21:13.851Z,1021.9
2022-10-31T23:26:27.542Z,1022
2022-10-31T23:32:02.842Z,1022.1
2022-10-31T23:38:01.191Z,1021.9
2022-10-31T23:43:11.852Z,1022
2022-10-31T23:49:01.766Z,1021.6
2022-10-31T23:54:38.742Z,1021.6
2022-10-31T23:59:57.008Z,1021.6
